createdAt,value
2023-05-14T00:00:04.564Z,8.40
2023-05-14T00:02:31.276Z,8.45
2023-05-14T00:04:57.943Z,8.85
2023-05-14T00:07:30.524Z,8.85
2023-05-14T00:09:58.099Z,9.13
2023-05-14T00:12:26.316Z,8.88
2023-05-14T00:14:53.518Z,9.05
2023-05-14T00:17:20.187Z,8.40
2023-05-14T00:19:46.826Z,9.75
2023-05-14T00:22:13.500Z,9.70
2023-05-14T00:24:40.256Z,8.82
2023-05-14T00:27:07.248Z,8.65
2023-05-14T00:29:33.982Z,9.02
2023-05-14T00:32:00.770Z,9.30
2023-05-14T00:34:27.404Z,8.77
2023-05-14T00:36:54.004Z,8.50
2023-05-14T00:39:21.707Z,8.60
2023-05-14T00:41:48.324Z,7.72
2023-05-14T00:44:14.972Z,8.93
2023-05-14T00:46:43.573Z,8.85
2023-05-14T00:49:10.792Z,8.07
2023-05-14T00:51:37.993Z,8.90
2023-05-14T00:54:04.980Z,7.45
2023-05-14T00:56:31.814Z,8.75
2023-05-14T00:58:58.646Z,8.82
2023-05-14T01:01:28.458Z,8.30
2023-05-14T01:03:57.860Z,8.95
2023-05-14T01:06:36.609Z,8.70
2023-05-14T01:09:26.966Z,9.13
2023-05-14T01:12:18.352Z,9.00
2023-05-14T01:14:59.496Z,8.65
2023-05-14T01:17:30.074Z,8.15
2023-05-14T01:19:57.944Z,8.20
2023-05-14T01:22:24.555Z,8.70
2023-05-14T01:24:51.402Z,8.75
2023-05-14T01:27:29.697Z,9.10
2023-05-14T01:30:09.842Z,10.10
2023-05-14T01:32:39.304Z,9.07
2023-05-14T01:35:07.929Z,8.95
2023-05-14T01:37:35.836Z,9.60
2023-05-14T01:40:03.854Z,9.10
2023-05-14T01:42:31.068Z,8.82
2023-05-14T01:44:57.942Z,9.50
2023-05-14T01:47:24.639Z,8.77
2023-05-14T01:49:51.256Z,8.65
2023-05-14T01:52:20.921Z,8.98
2023-05-14T01:54:48.471Z,9.57
2023-05-14T01:57:15.088Z,10.55
2023-05-14T01:59:41.723Z,9.70
2023-05-14T02:02:08.446Z,10.30
2023-05-14T02:04:35.087Z,9.77
2023-05-14T02:07:01.697Z,10.20
2023-05-14T02:09:28.311Z,9.35
2023-05-14T02:11:54.927Z,9.85
2023-05-14T02:14:21.547Z,10.15
2023-05-14T02:16:48.160Z,9.85
2023-05-14T02:19:14.845Z,9.88
2023-05-14T02:21:41.594Z,10.13
2023-05-14T02:24:08.258Z,10.52
2023-05-14T02:26:35.331Z,10.18
2023-05-14T02:29:01.941Z,10.30
2023-05-14T02:31:28.565Z,9.73
2023-05-14T02:33:55.264Z,9.55
2023-05-14T02:36:21.871Z,10.13
2023-05-14T02:38:48.469Z,9.27
2023-05-14T02:41:15.087Z,9.70
2023-05-14T02:43:41.687Z,9.68
2023-05-14T02:46:08.336Z,9.10
2023-05-14T02:48:34.946Z,9.95
2023-05-14T02:51:02.435Z,10.10
2023-05-14T02:53:29.078Z,8.98
2023-05-14T02:55:55.937Z,9.20
2023-05-14T02:58:25.643Z,8.75
2023-05-14T03:00:55.561Z,8.88
2023-05-14T03:03:22.784Z,8.52
2023-05-14T03:05:49.767Z,9.10
2023-05-14T03:08:16.368Z,8.70
2023-05-14T03:10:43.029Z,8.80
2023-05-14T03:13:09.714Z,8.35
2023-05-14T03:15:36.342Z,8.93
2023-05-14T03:18:02.986Z,8.80
2023-05-14T03:20:29.609Z,8.75
2023-05-14T03:22:56.450Z,9.30
2023-05-14T03:25:23.144Z,8.40
2023-05-14T03:27:49.749Z,8.52
2023-05-14T03:30:16.421Z,9.60
2023-05-14T03:32:43.224Z,8.65
2023-05-14T03:35:09.963Z,9.45
2023-05-14T03:37:36.656Z,9.45
2023-05-14T03:40:03.550Z,9.30
2023-05-14T03:42:30.225Z,9.40
2023-05-14T03:44:56.842Z,9.15
2023-05-14T03:47:23.492Z,9.95
2023-05-14T03:49:50.105Z,9.18
2023-05-14T03:52:16.773Z,9.60
2023-05-14T03:54:43.379Z,9.07
2023-05-14T03:57:09.999Z,9.75
2023-05-14T03:59:36.697Z,9.32
2023-05-14T04:02:03.425Z,9.90
2023-05-14T04:04:30.065Z,10.23
2023-05-14T04:06:56.751Z,10.50
2023-05-14T04:09:23.452Z,10.45
2023-05-14T04:11:50.092Z,8.90
2023-05-14T04:14:16.681Z,8.18
2023-05-14T04:16:43.324Z,8.43
2023-05-14T04:19:09.977Z,8.25
2023-05-14T04:21:36.597Z,8.98
2023-05-14T04:24:03.336Z,8.50
2023-05-14T04:26:29.963Z,8.73
2023-05-14T04:28:56.597Z,8.43
2023-05-14T04:31:23.233Z,8.43
2023-05-14T04:33:49.838Z,8.82
2023-05-14T04:36:16.534Z,9.15
2023-05-14T04:38:43.147Z,9.25
2023-05-14T04:41:09.753Z,9.48
2023-05-14T04:43:36.378Z,9.80
2023-05-14T04:46:03.211Z,9.18
2023-05-14T04:48:29.865Z,8.70
2023-05-14T04:50:56.468Z,9.07
2023-05-14T04:53:23.165Z,9.98
2023-05-14T04:55:49.782Z,9.27
2023-05-14T04:58:16.478Z,9.60
2023-05-14T05:00:43.638Z,9.25
2023-05-14T05:03:10.354Z,10.30
2023-05-14T05:05:37.135Z,9.75
2023-05-14T05:08:03.916Z,10.43
2023-05-14T05:10:30.592Z,11.20
2023-05-14T05:12:57.229Z,9.57
2023-05-14T05:15:25.918Z,10.35
2023-05-14T05:17:53.250Z,9.70
2023-05-14T05:20:19.929Z,9.80
2023-05-14T05:22:46.554Z,10.15
2023-05-14T05:25:13.214Z,10.93
2023-05-14T05:27:39.911Z,10.77
2023-05-14T05:30:07.661Z,10.55
2023-05-14T05:32:34.562Z,11.23
2023-05-14T05:35:01.431Z,10.52
2023-05-14T05:37:28.184Z,9.70
2023-05-14T05:39:54.788Z,10.02
2023-05-14T05:42:22.434Z,10.48
2023-05-14T05:44:49.083Z,10.05
2023-05-14T05:47:16.980Z,11.43
2023-05-14T05:49:43.700Z,10.88
2023-05-14T05:52:10.387Z,11.00
2023-05-14T05:54:37.039Z,11.38
2023-05-14T05:57:03.776Z,10.07
2023-05-14T05:59:30.585Z,10.70
2023-05-14T06:01:57.318Z,10.85
2023-05-14T06:04:23.960Z,10.40
2023-05-14T06:06:50.665Z,10.00
2023-05-14T06:09:17.271Z,10.43
2023-05-14T06:11:43.997Z,10.23
2023-05-14T06:14:10.628Z,10.25
2023-05-14T06:16:37.270Z,9.65
2023-05-14T06:19:03.992Z,9.80
2023-05-14T06:21:30.763Z,11.02
2023-05-14T06:23:57.396Z,10.35
2023-05-14T06:26:24.013Z,8.70
2023-05-14T06:28:50.609Z,9.52
2023-05-14T06:31:18.777Z,8.20
2023-05-14T06:33:45.438Z,7.30
2023-05-14T06:36:12.109Z,6.70
2023-05-14T06:38:38.706Z,6.35
2023-05-14T06:41:05.463Z,6.63
2023-05-14T06:43:32.284Z,6.15
2023-05-14T06:45:59.063Z,5.97
2023-05-14T06:48:27.810Z,5.37
2023-05-14T06:50:55.040Z,5.67
2023-05-14T06:53:21.699Z,5.33
2023-05-14T06:55:48.710Z,5.20
2023-05-14T06:58:15.473Z,5.50
2023-05-14T07:00:43.421Z,4.53
2023-05-14T07:03:10.295Z,4.87
2023-05-14T07:05:36.952Z,4.33
2023-05-14T07:08:03.657Z,4.60
2023-05-14T07:10:30.896Z,4.50
2023-05-14T07:12:57.604Z,4.03
2023-05-14T07:15:24.217Z,4.53
2023-05-14T07:17:50.875Z,4.17
2023-05-14T07:20:17.548Z,4.30
2023-05-14T07:22:44.161Z,3.90
2023-05-14T07:25:10.968Z,4.57
2023-05-14T07:27:37.593Z,4.03
2023-05-14T07:30:04.394Z,4.80
2023-05-14T07:32:31.054Z,4.57
2023-05-14T07:34:57.670Z,5.23
2023-05-14T07:37:25.930Z,4.50
2023-05-14T07:39:53.478Z,5.10
2023-05-14T07:42:31.664Z,4.97
2023-05-14T07:45:01.575Z,5.25
2023-05-14T07:47:29.651Z,4.90
2023-05-14T07:49:57.407Z,4.95
2023-05-14T07:52:24.752Z,5.20
2023-05-14T07:54:51.973Z,4.45
2023-05-14T07:57:19.686Z,4.75
2023-05-14T07:59:47.314Z,4.78
2023-05-14T08:02:15.824Z,5.15
2023-05-14T08:04:42.714Z,4.75
2023-05-14T08:07:09.483Z,4.72
2023-05-14T08:09:36.267Z,4.50
2023-05-14T08:12:03.284Z,4.40
2023-05-14T08:14:29.913Z,5.30
2023-05-14T08:16:56.668Z,5.03
2023-05-14T08:19:24.387Z,4.97
2023-05-14T08:21:51.385Z,4.90
2023-05-14T08:24:18.918Z,4.90
2023-05-14T08:26:45.569Z,4.80
2023-05-14T08:29:13.438Z,5.60
2023-05-14T08:31:42.306Z,4.60
2023-05-14T08:34:09.079Z,4.70
2023-05-14T08:36:35.755Z,4.88
2023-05-14T08:39:02.474Z,4.40
2023-05-14T08:41:29.399Z,4.50
2023-05-14T08:44:11.568Z,4.80
2023-05-14T08:46:39.648Z,5.18
2023-05-14T08:49:27.508Z,5.20
2023-05-14T08:51:54.502Z,4.75
2023-05-14T08:54:23.662Z,4.70
2023-05-14T08:56:52.261Z,4.60
2023-05-14T08:59:19.846Z,5.40
2023-05-14T09:01:52.751Z,5.25
2023-05-14T09:04:25.016Z,5.05
2023-05-14T09:06:53.722Z,5.35
2023-05-14T09:09:22.535Z,4.97
2023-05-14T09:11:51.040Z,5.10
2023-05-14T09:14:17.912Z,4.97
2023-05-14T09:16:49.996Z,5.25
2023-05-14T09:19:19.220Z,5.22
2023-05-14T09:21:47.219Z,5.00
2023-05-14T09:24:24.084Z,5.50
2023-05-14T09:26:56.279Z,5.50
2023-05-14T09:29:27.542Z,5.10
2023-05-14T09:31:55.286Z,5.13
2023-05-14T09:34:27.290Z,5.05
2023-05-14T09:36:59.055Z,4.80
2023-05-14T09:39:26.617Z,4.73
2023-05-14T09:41:53.864Z,4.70
2023-05-14T09:44:21.853Z,4.68
2023-05-14T09:46:49.358Z,4.70
2023-05-14T09:49:16.184Z,4.30
2023-05-14T09:51:42.850Z,4.80
2023-05-14T09:54:09.758Z,4.13
2023-05-14T09:56:37.510Z,4.37
2023-05-14T09:59:04.291Z,4.80
2023-05-14T10:01:31.585Z,5.07
2023-05-14T10:03:58.618Z,4.90
2023-05-14T10:06:33.036Z,4.87
2023-05-14T10:09:05.819Z,4.37
2023-05-14T10:11:36.722Z,4.60
2023-05-14T10:14:07.605Z,4.30
2023-05-14T10:16:38.184Z,4.50
2023-05-14T10:19:12.634Z,4.47
2023-05-14T10:21:41.492Z,4.88
2023-05-14T10:24:09.499Z,4.63
2023-05-14T10:26:39.445Z,5.55
2023-05-14T10:29:06.812Z,4.57
2023-05-14T10:31:55.613Z,5.28
2023-05-14T10:34:33.482Z,4.95
2023-05-14T10:37:07.723Z,4.97
2023-05-14T10:39:40.927Z,5.60
2023-05-14T10:42:08.912Z,4.88
2023-05-14T10:44:36.079Z,5.25
2023-05-14T10:47:03.410Z,4.80
2023-05-14T10:49:42.921Z,5.75
2023-05-14T10:52:12.047Z,4.68
2023-05-14T10:54:39.113Z,5.00
2023-05-14T10:57:11.638Z,4.73
2023-05-14T10:59:41.889Z,4.70
2023-05-14T11:02:23.332Z,5.05
2023-05-14T11:05:05.417Z,4.65
2023-05-14T11:07:34.044Z,4.93
2023-05-14T11:10:06.872Z,4.80
2023-05-14T11:12:35.037Z,4.50
2023-05-14T11:15:06.327Z,4.35
2023-05-14T11:17:34.824Z,4.88
2023-05-14T11:20:01.571Z,4.70
2023-05-14T11:22:28.246Z,4.60
2023-05-14T11:24:54.976Z,4.22
2023-05-14T11:27:23.966Z,4.30
2023-05-14T11:29:50.968Z,4.00
2023-05-14T11:32:18.750Z,4.82
2023-05-14T11:34:46.494Z,4.80
2023-05-14T11:37:15.012Z,4.68
2023-05-14T11:39:53.602Z,4.30
2023-05-14T11:42:22.277Z,4.85
2023-05-14T11:44:50.336Z,4.37
2023-05-14T11:47:18.423Z,4.10
2023-05-14T11:49:45.688Z,4.17
2023-05-14T11:52:14.721Z,4.65
2023-05-14T11:54:42.991Z,4.13
2023-05-14T11:57:15.483Z,4.20
2023-05-14T11:59:42.313Z,3.80
2023-05-14T12:02:12.326Z,4.07
2023-05-14T12:04:39.618Z,3.97
2023-05-14T12:07:14.931Z,4.17
2023-05-14T12:09:50.047Z,4.00
2023-05-14T12:12:20.026Z,4.20
2023-05-14T12:14:47.281Z,3.87
2023-05-14T12:17:22.036Z,4.63
2023-05-14T12:19:52.071Z,4.20
2023-05-14T12:22:23.084Z,3.80
2023-05-14T12:24:57.791Z,4.30
2023-05-14T12:27:26.237Z,3.70
2023-05-14T12:30:20.020Z,3.97
2023-05-14T12:32:51.513Z,3.90
2023-05-14T12:35:18.756Z,4.10
2023-05-14T12:37:45.367Z,4.10
2023-05-14T12:40:12.313Z,4.07
2023-05-14T12:42:38.916Z,4.20
2023-05-14T12:45:08.034Z,3.70
2023-05-14T12:47:35.059Z,3.90
2023-05-14T12:50:02.040Z,3.73
2023-05-14T12:52:37.794Z,3.53
2023-05-14T12:55:06.782Z,3.90
2023-05-14T12:57:35.103Z,4.03
2023-05-14T13:00:06.147Z,4.27
2023-05-14T13:02:32.882Z,4.80
2023-05-14T13:05:02.569Z,4.10
2023-05-14T13:07:30.049Z,3.83
2023-05-14T13:09:56.799Z,4.00
2023-05-14T13:12:24.138Z,3.83
2023-05-14T13:14:50.758Z,4.00
2023-05-14T13:17:17.433Z,4.30
2023-05-14T13:19:44.097Z,3.97
2023-05-14T13:22:10.782Z,4.10
2023-05-14T13:24:37.558Z,3.77
2023-05-14T13:27:04.418Z,3.90
2023-05-14T13:29:31.582Z,3.60
2023-05-14T13:31:58.218Z,3.90
2023-05-14T13:34:24.851Z,3.70
2023-05-14T13:36:51.806Z,3.73
2023-05-14T13:39:22.476Z,3.40
2023-05-14T13:41:50.683Z,3.53
2023-05-14T13:44:17.296Z,3.83
2023-05-14T13:46:44.174Z,3.80
2023-05-14T13:49:11.070Z,3.60
2023-05-14T13:51:37.687Z,4.30
2023-05-14T13:54:04.393Z,3.60
2023-05-14T13:56:31.074Z,3.90
2023-05-14T13:58:57.790Z,3.93
2023-05-14T14:01:24.541Z,4.17
2023-05-14T14:03:51.297Z,4.40
2023-05-14T14:06:17.916Z,3.90
2023-05-14T14:08:44.646Z,4.00
2023-05-14T14:11:12.866Z,3.67
2023-05-14T14:13:40.144Z,4.37
2023-05-14T14:16:07.017Z,3.70
2023-05-14T14:18:34.044Z,4.00
2023-05-14T14:21:00.732Z,4.30
2023-05-14T14:23:27.354Z,3.90
2023-05-14T14:25:53.958Z,4.10
2023-05-14T14:28:20.648Z,4.20
2023-05-14T14:30:47.551Z,3.90
2023-05-14T14:33:14.270Z,4.13
2023-05-14T14:35:40.912Z,4.30
2023-05-14T14:38:07.533Z,3.90
2023-05-14T14:40:34.812Z,4.00
2023-05-14T14:43:02.121Z,4.13
2023-05-14T14:45:28.756Z,4.60
2023-05-14T14:48:27.482Z,4.33
2023-05-14T14:50:55.405Z,3.97
2023-05-14T14:53:23.069Z,4.13
2023-05-14T14:55:50.561Z,4.07
2023-05-14T14:58:19.363Z,3.80
2023-05-14T15:00:46.254Z,4.10
2023-05-14T15:03:14.830Z,4.20
2023-05-14T15:05:41.850Z,4.10
2023-05-14T15:08:08.713Z,4.20
2023-05-14T15:10:37.870Z,4.10
2023-05-14T15:13:06.039Z,3.87
2023-05-14T15:15:34.160Z,3.90
2023-05-14T15:18:01.177Z,3.77
2023-05-14T15:20:27.887Z,4.10
2023-05-14T15:22:54.917Z,4.17
2023-05-14T15:25:23.160Z,4.13
2023-05-14T15:27:50.645Z,4.00
2023-05-14T15:30:17.333Z,4.10
2023-05-14T15:32:45.202Z,4.03
2023-05-14T15:35:12.209Z,3.77
2023-05-14T15:37:41.422Z,3.90
2023-05-14T15:40:09.272Z,3.83
2023-05-14T15:42:37.010Z,3.80
2023-05-14T15:45:04.374Z,4.03
2023-05-14T15:47:31.348Z,4.30
2023-05-14T15:49:58.806Z,4.00
2023-05-14T15:52:25.880Z,3.97
2023-05-14T15:54:52.794Z,3.80
2023-05-14T15:57:20.211Z,4.23
2023-05-14T15:59:47.324Z,3.77
2023-05-14T16:02:14.949Z,3.63
2023-05-14T16:04:41.590Z,3.80
2023-05-14T16:07:12.197Z,3.67
2023-05-14T16:09:39.124Z,3.90
2023-05-14T16:12:06.672Z,3.50
2023-05-14T16:14:34.689Z,4.00
2023-05-14T16:17:04.489Z,4.03
2023-05-14T16:19:31.092Z,3.80
2023-05-14T16:21:57.743Z,3.50
2023-05-14T16:24:24.449Z,4.00
2023-05-14T16:26:51.449Z,3.60
2023-05-14T16:29:18.175Z,4.87
2023-05-14T16:31:44.889Z,3.90
2023-05-14T16:34:11.521Z,4.00
2023-05-14T16:36:38.249Z,4.00
2023-05-14T16:39:07.698Z,4.17
2023-05-14T16:41:35.791Z,3.97
2023-05-14T16:44:02.913Z,4.20
2023-05-14T16:46:31.031Z,4.10
2023-05-14T16:48:57.806Z,4.27
2023-05-14T16:51:24.409Z,4.40
2023-05-14T16:53:51.959Z,3.90
2023-05-14T16:56:18.930Z,4.03
2023-05-14T16:58:45.631Z,3.73
2023-05-14T17:01:12.378Z,3.83
2023-05-14T17:03:39.064Z,3.90
2023-05-14T17:06:06.038Z,4.03
2023-05-14T17:08:33.638Z,4.10
2023-05-14T17:11:00.504Z,4.20
2023-05-14T17:13:27.163Z,4.38
2023-05-14T17:15:53.800Z,4.30
2023-05-14T17:18:20.507Z,3.88
2023-05-14T17:20:47.131Z,4.50
2023-05-14T17:23:13.941Z,4.00
2023-05-14T17:25:40.574Z,3.80
2023-05-14T17:28:07.235Z,4.30
2023-05-14T17:30:33.839Z,4.00
2023-05-14T17:33:00.551Z,4.18
2023-05-14T17:35:27.432Z,4.00
2023-05-14T17:37:54.082Z,4.00
2023-05-14T17:40:20.696Z,4.20
2023-05-14T17:42:47.352Z,4.20
2023-05-14T17:45:15.393Z,3.97
2023-05-14T17:47:42.279Z,4.25
2023-05-14T17:50:09.272Z,4.10
2023-05-14T17:52:35.981Z,3.80
2023-05-14T17:55:02.602Z,4.10
2023-05-14T17:57:29.274Z,5.05
2023-05-14T17:59:55.926Z,3.78
2023-05-14T18:02:22.551Z,4.00
2023-05-14T18:04:49.159Z,4.38
2023-05-14T18:07:16.298Z,4.10
2023-05-14T18:09:42.914Z,4.10
2023-05-14T18:12:12.336Z,4.10
2023-05-14T18:14:38.957Z,4.05
2023-05-14T18:17:06.198Z,4.45
2023-05-14T18:19:32.886Z,3.97
2023-05-14T18:21:59.456Z,3.90
2023-05-14T18:24:26.299Z,3.88
2023-05-14T18:26:52.949Z,4.20
2023-05-14T18:29:19.634Z,4.05
2023-05-14T18:31:46.292Z,4.10
2023-05-14T18:34:12.910Z,4.30
2023-05-14T18:36:39.545Z,4.30
2023-05-14T18:39:06.378Z,4.50
2023-05-14T18:41:32.973Z,4.43
2023-05-14T18:43:59.655Z,4.45
2023-05-14T18:46:26.365Z,4.97
2023-05-14T18:48:53.106Z,4.28
2023-05-14T18:51:19.935Z,4.50
2023-05-14T18:53:46.560Z,4.50
2023-05-14T18:56:13.341Z,4.50
2023-05-14T18:58:40.126Z,4.85
2023-05-14T19:01:06.964Z,4.78
2023-05-14T19:03:34.005Z,4.38
2023-05-14T19:06:00.785Z,4.90
2023-05-14T19:08:27.381Z,4.10
2023-05-14T19:10:54.122Z,4.65
2023-05-14T19:13:21.341Z,4.43
2023-05-14T19:15:48.056Z,4.50
2023-05-14T19:18:14.787Z,4.60
2023-05-14T19:20:42.239Z,4.28
2023-05-14T19:23:08.853Z,4.32
2023-05-14T19:25:35.491Z,4.30
2023-05-14T19:28:03.587Z,4.45
2023-05-14T19:30:30.470Z,4.40
2023-05-14T19:32:57.182Z,4.40
2023-05-14T19:35:24.216Z,4.70
2023-05-14T19:37:50.964Z,4.20
2023-05-14T19:40:17.731Z,4.35
2023-05-14T19:42:44.414Z,4.40
2023-05-14T19:45:11.391Z,4.20
2023-05-14T19:47:38.134Z,4.30
2023-05-14T19:50:05.415Z,4.55
2023-05-14T19:52:32.024Z,4.30
2023-05-14T19:54:58.866Z,4.30
2023-05-14T19:57:26.506Z,4.60
2023-05-14T19:59:53.142Z,4.43
2023-05-14T20:02:21.603Z,4.75
2023-05-14T20:04:49.054Z,4.90
2023-05-14T20:07:15.761Z,4.65
2023-05-14T20:09:42.564Z,4.97
2023-05-14T20:12:09.600Z,4.90
2023-05-14T20:14:36.237Z,4.80
2023-05-14T20:17:03.001Z,4.78
2023-05-14T20:19:29.708Z,4.78
2023-05-14T20:21:56.652Z,4.88
2023-05-14T20:24:23.255Z,5.20
2023-05-14T20:26:50.052Z,5.53
2023-05-14T20:29:16.669Z,4.93
2023-05-14T20:31:43.331Z,4.85
2023-05-14T20:34:09.957Z,5.30
2023-05-14T20:36:37.373Z,5.03
2023-05-14T20:39:06.015Z,4.70
2023-05-14T20:41:32.768Z,4.85
2023-05-14T20:43:59.360Z,4.80
2023-05-14T20:46:26.114Z,5.28
2023-05-14T20:48:55.732Z,4.70
2023-05-14T20:51:22.644Z,4.53
2023-05-14T20:53:49.343Z,4.70
2023-05-14T20:56:16.165Z,5.07
2023-05-14T20:58:42.797Z,5.03
2023-05-14T21:01:09.543Z,4.85
2023-05-14T21:03:36.608Z,4.70
2023-05-14T21:06:03.355Z,5.50
2023-05-14T21:08:32.864Z,5.40
2023-05-14T21:10:59.542Z,5.40
2023-05-14T21:13:26.164Z,5.18
2023-05-14T21:15:52.788Z,4.88
2023-05-14T21:18:19.423Z,5.43
2023-05-14T21:20:46.022Z,5.43
2023-05-14T21:23:12.817Z,5.25
2023-05-14T21:25:39.448Z,5.05
2023-05-14T21:28:06.068Z,5.22
2023-05-14T21:30:32.814Z,5.50
2023-05-14T21:32:59.493Z,5.65
2023-05-14T21:35:26.361Z,5.00
2023-05-14T21:37:53.450Z,4.97
2023-05-14T21:40:20.104Z,5.25
2023-05-14T21:42:46.713Z,5.10
2023-05-14T21:45:13.367Z,5.43
2023-05-14T21:47:40.073Z,5.10
2023-05-14T21:50:07.374Z,5.40
2023-05-14T21:52:34.152Z,5.10
2023-05-14T21:55:00.757Z,5.70
2023-05-14T21:57:28.631Z,5.50
2023-05-14T21:59:55.812Z,5.55
2023-05-14T22:02:22.532Z,5.90
2023-05-14T22:04:49.146Z,5.57
2023-05-14T22:07:15.865Z,5.68
2023-05-14T22:09:42.496Z,5.40
2023-05-14T22:12:09.274Z,5.90
2023-05-14T22:14:36.375Z,5.68
2023-05-14T22:17:03.237Z,6.05
2023-05-14T22:19:29.847Z,5.85
2023-05-14T22:21:56.661Z,5.68
2023-05-14T22:24:23.302Z,5.60
2023-05-14T22:26:50.419Z,6.10
2023-05-14T22:29:17.083Z,5.63
2023-05-14T22:31:43.952Z,5.40
2023-05-14T22:34:10.632Z,5.40
2023-05-14T22:36:37.376Z,5.40
2023-05-14T22:39:04.102Z,5.75
2023-05-14T22:41:30.857Z,5.50
2023-05-14T22:43:57.487Z,5.68
2023-05-14T22:46:24.194Z,6.00
2023-05-14T22:48:51.056Z,5.55
2023-05-14T22:51:17.866Z,5.90
2023-05-14T22:53:45.376Z,5.80
2023-05-14T22:56:11.988Z,6.10
2023-05-14T22:58:38.605Z,5.57
2023-05-14T23:01:05.419Z,6.25
2023-05-14T23:03:32.017Z,5.90
2023-05-14T23:05:58.802Z,6.30
2023-05-14T23:08:25.480Z,6.30
2023-05-14T23:10:52.133Z,6.05
2023-05-14T23:13:19.191Z,5.95
2023-05-14T23:15:45.896Z,6.55
2023-05-14T23:18:12.841Z,6.15
2023-05-14T23:20:39.498Z,6.30
2023-05-14T23:23:06.427Z,7.15
2023-05-14T23:25:33.066Z,6.25
2023-05-14T23:27:59.916Z,5.97
2023-05-14T23:30:26.524Z,6.05
2023-05-14T23:32:53.205Z,7.38
2023-05-14T23:35:19.822Z,6.30
2023-05-14T23:37:49.356Z,6.40
2023-05-14T23:40:16.124Z,6.20
2023-05-14T23:42:44.302Z,6.30
2023-05-14T23:45:12.051Z,6.50
2023-05-14T23:47:38.884Z,6.25
2023-05-14T23:50:05.962Z,7.10
2023-05-14T23:52:32.914Z,6.50
2023-05-14T23:55:00.696Z,6.30
2023-05-14T23:57:27.400Z,6.75
2023-05-14T23:59:54.034Z,6.50
